sensor_id;sensor_type;location;lat;lon;timestamp;P1;durP1;ratioP1;P2;durP2;ratioP2
63276;SDS011;49403;51.046;13.780;2023-08-30T00:00:30;2.90;;;2.70;;
63276;SDS011;49403;51.046;13.780;2023-08-30T00:01:01;3.28;;;2.90;;
63276;SDS011;49403;51.046;13.780;2023-08-30T00:01:32;3.47;;;3.03;;
63276;SDS011;49403;51.046;13.780;2023-08-30T00:02:04;4.57;;;3.00;;
63276;SDS011;49403;51.046;13.780;2023-08-30T00:02:35;3.92;;;3.00;;
63276;SDS011;49403;51.046;13.780;2023-08-30T00:03:09;3.00;;;2.80;;
63276;SDS011;49403;51.046;13.780;2023-08-30T00:03:41;3.20;;;2.85;;
63276;SDS011;49403;51.046;13.780;2023-08-30T00:04:13;3.33;;;2.70;;
63276;SDS011;49403;51.046;13.780;2023-08-30T00:04:44;3.50;;;3.00;;
63276;SDS011;49403;51.046;13.780;2023-08-30T00:05:17;5.45;;;2.70;;
63276;SDS011;49403;51.046;13.780;2023-08-30T00:05:48;5.10;;;2.83;;
63276;SDS011;49403;51.046;13.780;2023-08-30T00:06:19;3.25;;;2.80;;
63276;SDS011;49403;51.046;13.780;2023-08-30T00:06:51;5.55;;;2.72;;
63276;SDS011;49403;51.046;13.780;2023-08-30T00:07:22;3.97;;;2.90;;
63276;SDS011;49403;51.046;13.780;2023-08-30T00:07:54;2.70;;;2.50;;
63276;SDS011;49403;51.046;13.780;2023-08-30T00:08:25;3.05;;;2.80;;
63276;SDS011;49403;51.046;13.780;2023-08-30T00:08:56;4.30;;;2.90;;
63276;SDS011;49403;51.046;13.780;2023-08-30T00:09:28;3.38;;;2.70;;
63276;SDS011;49403;51.046;13.780;2023-08-30T00:09:59;6.28;;;3.00;;
63276;SDS011;49403;51.046;13.780;2023-08-30T00:10:30;3.70;;;2.70;;
63276;SDS011;49403;51.046;13.780;2023-08-30T00:11:02;3.20;;;2.90;;
63276;SDS011;49403;51.046;13.780;2023-08-30T00:11:34;3.30;;;3.00;;
63276;SDS011;49403;51.046;13.780;2023-08-30T00:12:05;3.10;;;2.88;;
63276;SDS011;49403;51.046;13.780;2023-08-30T00:12:36;3.17;;;2.80;;
63276;SDS011;49403;51.046;13.780;2023-08-30T00:13:08;3.53;;;2.80;;
63276;SDS011;49403;51.046;13.780;2023-08-30T00:13:39;3.22;;;2.70;;
63276;SDS011;49403;51.046;13.780;2023-08-30T00:14:11;3.35;;;2.90;;
63276;SDS011;49403;51.046;13.780;2023-08-30T00:14:42;3.40;;;2.97;;
63276;SDS011;49403;51.046;13.780;2023-08-30T00:15:13;3.00;;;2.70;;
63276;SDS011;49403;51.046;13.780;2023-08-30T00:15:45;6.20;;;2.97;;
63276;SDS011;49403;51.046;13.780;2023-08-30T00:16:16;5.80;;;3.20;;
63276;SDS011;49403;51.046;13.780;2023-08-30T00:16:47;3.10;;;2.80;;
63276;SDS011;49403;51.046;13.780;2023-08-30T00:17:18;3.70;;;3.00;;
63276;SDS011;49403;51.046;13.780;2023-08-30T00:17:50;3.80;;;3.03;;
63276;SDS011;49403;51.046;13.780;2023-08-30T00:18:23;3.63;;;2.90;;
63276;SDS011;49403;51.046;13.780;2023-08-30T00:18:55;5.25;;;3.10;;
63276;SDS011;49403;51.046;13.780;2023-08-30T00:19:26;3.45;;;3.15;;
63276;SDS011;49403;51.046;13.780;2023-08-30T00:19:58;4.82;;;3.15;;
63276;SDS011;49403;51.046;13.780;2023-08-30T00:20:29;3.35;;;2.97;;
63276;SDS011;49403;51.046;13.780;2023-08-30T00:21:01;5.20;;;3.00;;
63276;SDS011;49403;51.046;13.780;2023-08-30T00:21:32;4.80;;;2.85;;
63276;SDS011;49403;51.046;13.780;2023-08-30T00:22:03;3.40;;;3.08;;
63276;SDS011;49403;51.046;13.780;2023-08-30T00:22:37;5.72;;;2.92;;
63276;SDS011;49403;51.046;13.780;2023-08-30T00:23:09;3.50;;;2.90;;
63276;SDS011;49403;51.046;13.780;2023-08-30T00:23:40;5.45;;;2.80;;
63276;SDS011;49403;51.046;13.780;2023-08-30T00:24:12;3.78;;;2.97;;
63276;SDS011;49403;51.046;13.780;2023-08-30T00:24:43;4.57;;;2.90;;
63276;SDS011;49403;51.046;13.780;2023-08-30T00:25:14;4.47;;;2.97;;
63276;SDS011;49403;51.046;13.780;2023-08-30T00:25:46;3.35;;;3.05;;
63276;SDS011;49403;51.046;13.780;2023-08-30T00:26:17;2.90;;;2.70;;
63276;SDS011;49403;51.046;13.780;2023-08-30T00:26:48;3.85;;;2.90;;
63276;SDS011;49403;51.046;13.780;2023-08-30T00:27:20;5.38;;;2.90;;
63276;SDS011;49403;51.046;13.780;2023-08-30T00:27:51;4.55;;;3.00;;
63276;SDS011;49403;51.046;13.780;2023-08-30T00:28:22;3.97;;;3.00;;
63276;SDS011;49403;51.046;13.780;2023-08-30T00:28:53;3.45;;;2.85;;
63276;SDS011;49403;51.046;13.780;2023-08-30T00:29:24;3.47;;;2.90;;
63276;SDS011;49403;51.046;13.780;2023-08-30T00:29:55;4.28;;;3.00;;
63276;SDS011;49403;51.046;13.780;2023-08-30T00:30:26;4.30;;;3.10;;
63276;SDS011;49403;51.046;13.780;2023-08-30T00:30:58;4.22;;;3.22;;
63276;SDS011;49403;51.046;13.780;2023-08-30T00:31:29;4.40;;;3.20;;
63276;SDS011;49403;51.046;13.780;2023-08-30T00:32:00;3.67;;;3.00;;
63276;SDS011;49403;51.046;13.780;2023-08-30T00:32:31;3.10;;;2.90;;
63276;SDS011;49403;51.046;13.780;2023-08-30T00:33:02;3.25;;;2.95;;
63276;SDS011;49403;51.046;13.780;2023-08-30T00:33:34;3.95;;;3.10;;
63276;SDS011;49403;51.046;13.780;2023-08-30T00:34:05;3.30;;;3.00;;
63276;SDS011;49403;51.046;13.780;2023-08-30T00:34:36;4.80;;;3.10;;
63276;SDS011;49403;51.046;13.780;2023-08-30T00:35:07;3.40;;;3.00;;
63276;SDS011;49403;51.046;13.780;2023-08-30T00:35:39;3.33;;;2.90;;
63276;SDS011;49403;51.046;13.780;2023-08-30T00:36:10;5.00;;;3.20;;
63276;SDS011;49403;51.046;13.780;2023-08-30T00:36:41;5.00;;;3.22;;
63276;SDS011;49403;51.046;13.780;2023-08-30T00:37:12;3.42;;;3.00;;
63276;SDS011;49403;51.046;13.780;2023-08-30T00:37:43;5.43;;;3.00;;
63276;SDS011;49403;51.046;13.780;2023-08-30T00:38:14;3.17;;;2.88;;
63276;SDS011;49403;51.046;13.780;2023-08-30T00:38:46;4.28;;;3.05;;
63276;SDS011;49403;51.046;13.780;2023-08-30T00:39:17;4.95;;;2.90;;
63276;SDS011;49403;51.046;13.780;2023-08-30T00:39:48;4.10;;;3.08;;
63276;SDS011;49403;51.046;13.780;2023-08-30T00:40:22;4.15;;;2.88;;
63276;SDS011;49403;51.046;13.780;2023-08-30T00:40:54;3.53;;;3.20;;
63276;SDS011;49403;51.046;13.780;2023-08-30T00:41:25;3.70;;;3.00;;
63276;SDS011;49403;51.046;13.780;2023-08-30T00:41:57;3.50;;;3.20;;
63276;SDS011;49403;51.046;13.780;2023-08-30T00:42:28;4.93;;;3.10;;
63276;SDS011;49403;51.046;13.780;2023-08-30T00:42:59;3.50;;;2.90;;
63276;SDS011;49403;51.046;13.780;2023-08-30T00:43:30;3.72;;;3.20;;
63276;SDS011;49403;51.046;13.780;2023-08-30T00:44:01;4.07;;;2.90;;
63276;SDS011;49403;51.046;13.780;2023-08-30T00:44:32;4.20;;;3.00;;
63276;SDS011;49403;51.046;13.780;2023-08-30T00:45:04;4.32;;;3.08;;
63276;SDS011;49403;51.046;13.780;2023-08-30T00:45:35;3.70;;;3.10;;
63276;SDS011;49403;51.046;13.780;2023-08-30T00:46:09;4.63;;;2.90;;
63276;SDS011;49403;51.046;13.780;2023-08-30T00:46:41;4.10;;;3.10;;
63276;SDS011;49403;51.046;13.780;2023-08-30T00:47:15;3.38;;;3.08;;
63276;SDS011;49403;51.046;13.780;2023-08-30T00:47:46;3.60;;;3.20;;
63276;SDS011;49403;51.046;13.780;2023-08-30T00:48:18;3.95;;;3.15;;
63276;SDS011;49403;51.046;13.780;2023-08-30T00:48:50;3.80;;;3.20;;
63276;SDS011;49403;51.046;13.780;2023-08-30T00:49:22;5.05;;;3.08;;
63276;SDS011;49403;51.046;13.780;2023-08-30T00:49:53;3.45;;;2.97;;
63276;SDS011;49403;51.046;13.780;2023-08-30T00:50:24;3.75;;;3.13;;
63276;SDS011;49403;51.046;13.780;2023-08-30T00:50:56;6.38;;;3.40;;
63276;SDS011;49403;51.046;13.780;2023-08-30T00:51:27;4.60;;;3.10;;
63276;SDS011;49403;51.046;13.780;2023-08-30T00:51:58;3.28;;;2.97;;
63276;SDS011;49403;51.046;13.780;2023-08-30T00:52:33;3.45;;;3.00;;
63276;SDS011;49403;51.046;13.780;2023-08-30T00:53:05;4.00;;;3.05;;
63276;SDS011;49403;51.046;13.780;2023-08-30T00:53:37;4.80;;;2.90;;
63276;SDS011;49403;51.046;13.780;2023-08-30T00:54:09;3.72;;;3.13;;
63276;SDS011;49403;51.046;13.780;2023-08-30T00:54:40;3.65;;;3.10;;
63276;SDS011;49403;51.046;13.780;2023-08-30T00:55:11;8.52;;;3.35;;
63276;SDS011;49403;51.046;13.780;2023-08-30T00:55:43;3.40;;;3.10;;
63276;SDS011;49403;51.046;13.780;2023-08-30T00:56:14;3.88;;;3.13;;
63276;SDS011;49403;51.046;13.780;2023-08-30T00:56:46;3.88;;;2.97;;
63276;SDS011;49403;51.046;13.780;2023-08-30T00:57:17;4.28;;;3.10;;
63276;SDS011;49403;51.046;13.780;2023-08-30T00:57:48;3.65;;;3.28;;
63276;SDS011;49403;51.046;13.780;2023-08-30T00:58:20;6.85;;;3.20;;
63276;SDS011;49403;51.046;13.780;2023-08-30T00:58:51;3.33;;;3.00;;
63276;SDS011;49403;51.046;13.780;2023-08-30T00:59:22;5.50;;;3.63;;
63276;SDS011;49403;51.046;13.780;2023-08-30T00:59:54;4.20;;;3.00;;
63276;SDS011;49403;51.046;13.780;2023-08-30T01:00:26;4.10;;;2.63;;
63276;SDS011;49403;51.046;13.780;2023-08-30T01:00:58;4.88;;;3.10;;
63276;SDS011;49403;51.046;13.780;2023-08-30T01:01:29;4.70;;;3.05;;
63276;SDS011;49403;51.046;13.780;2023-08-30T01:02:01;3.80;;;3.10;;
63276;SDS011;49403;51.046;13.780;2023-08-30T01:02:34;3.33;;;3.00;;
63276;SDS011;49403;51.046;13.780;2023-08-30T01:03:05;3.45;;;3.00;;
63276;SDS011;49403;51.046;13.780;2023-08-30T01:03:40;6.25;;;3.15;;
63276;SDS011;49403;51.046;13.780;2023-08-30T01:04:11;5.57;;;3.10;;
63276;SDS011;49403;51.046;13.780;2023-08-30T01:04:42;3.42;;;3.00;;
63276;SDS011;49403;51.046;13.780;2023-08-30T01:05:13;3.70;;;3.00;;
63276;SDS011;49403;51.046;13.780;2023-08-30T01:05:44;4.05;;;3.03;;
63276;SDS011;49403;51.046;13.780;2023-08-30T01:06:16;3.97;;;2.90;;
63276;SDS011;49403;51.046;13.780;2023-08-30T01:06:47;3.70;;;3.05;;
63276;SDS011;49403;51.046;13.780;2023-08-30T01:07:18;4.28;;;3.30;;
63276;SDS011;49403;51.046;13.780;2023-08-30T01:07:52;3.97;;;3.00;;
63276;SDS011;49403;51.046;13.780;2023-08-30T01:08:24;3.92;;;3.20;;
63276;SDS011;49403;51.046;13.780;2023-08-30T01:08:55;6.88;;;2.97;;
63276;SDS011;49403;51.046;13.780;2023-08-30T01:09:26;5.65;;;3.50;;
63276;SDS011;49403;51.046;13.780;2023-08-30T01:09:57;4.20;;;3.20;;
63276;SDS011;49403;51.046;13.780;2023-08-30T01:10:34;3.80;;;3.10;;
63276;SDS011;49403;51.046;13.780;2023-08-30T01:11:19;3.67;;;3.13;;
63276;SDS011;49403;51.046;13.780;2023-08-30T01:12:47;4.78;;;3.20;;
63276;SDS011;49403;51.046;13.780;2023-08-30T01:13:23;3.50;;;3.20;;
63276;SDS011;49403;51.046;13.780;2023-08-30T01:14:03;6.13;;;3.10;;
63276;SDS011;49403;51.046;13.780;2023-08-30T01:14:44;4.65;;;2.97;;
63276;SDS011;49403;51.046;13.780;2023-08-30T01:15:23;4.22;;;3.15;;
63276;SDS011;49403;51.046;13.780;2023-08-30T01:15:56;4.47;;;3.22;;
63276;SDS011;49403;51.046;13.780;2023-08-30T01:16:28;6.63;;;3.20;;
63276;SDS011;49403;51.046;13.780;2023-08-30T01:17:00;3.63;;;3.30;;
63276;SDS011;49403;51.046;13.780;2023-08-30T01:17:32;3.63;;;3.33;;
63276;SDS011;49403;51.046;13.780;2023-08-30T01:18:05;4.38;;;3.88;;
63276;SDS011;49403;51.046;13.780;2023-08-30T01:18:37;5.75;;;3.50;;
63276;SDS011;49403;51.046;13.780;2023-08-30T01:19:18;3.45;;;3.15;;
63276;SDS011;49403;51.046;13.780;2023-08-30T01:20:12;4.35;;;3.40;;
63276;SDS011;49403;51.046;13.780;2023-08-30T01:20:48;4.53;;;3.50;;
63276;SDS011;49403;51.046;13.780;2023-08-30T01:23:23;5.93;;;3.40;;
63276;SDS011;49403;51.046;13.780;2023-08-30T01:24:13;3.40;;;3.10;;
63276;SDS011;49403;51.046;13.780;2023-08-30T01:27:33;4.57;;;3.50;;
63276;SDS011;49403;51.046;13.780;2023-08-30T01:28:06;4.18;;;3.30;;
63276;SDS011;49403;51.046;13.780;2023-08-30T01:28:39;5.35;;;3.40;;
63276;SDS011;49403;51.046;13.780;2023-08-30T01:29:11;4.78;;;3.30;;
63276;SDS011;49403;51.046;13.780;2023-08-30T01:29:44;6.55;;;3.42;;
63276;SDS011;49403;51.046;13.780;2023-08-30T01:30:18;4.70;;;3.55;;
63276;SDS011;49403;51.046;13.780;2023-08-30T01:30:51;3.95;;;3.42;;
63276;SDS011;49403;51.046;13.780;2023-08-30T01:31:27;7.22;;;3.90;;
63276;SDS011;49403;51.046;13.780;2023-08-30T01:32:04;5.35;;;3.40;;
63276;SDS011;49403;51.046;13.780;2023-08-30T01:32:37;4.55;;;3.60;;
63276;SDS011;49403;51.046;13.780;2023-08-30T01:33:10;9.20;;;3.70;;
63276;SDS011;49403;51.046;13.780;2023-08-30T01:33:43;4.65;;;3.40;;
63276;SDS011;49403;51.046;13.780;2023-08-30T01:34:16;4.47;;;3.53;;
63276;SDS011;49403;51.046;13.780;2023-08-30T01:34:48;4.10;;;3.50;;
63276;SDS011;49403;51.046;13.780;2023-08-30T01:35:20;4.35;;;3.20;;
63276;SDS011;49403;51.046;13.780;2023-08-30T01:35:52;4.03;;;3.40;;
63276;SDS011;49403;51.046;13.780;2023-08-30T01:36:25;5.32;;;3.40;;
63276;SDS011;49403;51.046;13.780;2023-08-30T01:36:57;4.72;;;3.65;;
63276;SDS011;49403;51.046;13.780;2023-08-30T01:37:29;4.90;;;3.40;;
63276;SDS011;49403;51.046;13.780;2023-08-30T01:38:05;4.70;;;3.30;;
63276;SDS011;49403;51.046;13.780;2023-08-30T01:38:36;8.50;;;3.30;;
63276;SDS011;49403;51.046;13.780;2023-08-30T01:39:12;4.93;;;3.38;;
63276;SDS011;49403;51.046;13.780;2023-08-30T01:39:45;4.82;;;3.20;;
63276;SDS011;49403;51.046;13.780;2023-08-30T01:40:17;3.97;;;3.13;;
63276;SDS011;49403;51.046;13.780;2023-08-30T01:40:50;5.10;;;3.40;;
63276;SDS011;49403;51.046;13.780;2023-08-30T01:41:24;7.20;;;3.78;;
63276;SDS011;49403;51.046;13.780;2023-08-30T01:41:56;6.38;;;3.70;;
63276;SDS011;49403;51.046;13.780;2023-08-30T01:42:30;7.68;;;3.22;;
63276;SDS011;49403;51.046;13.780;2023-08-30T01:43:03;3.72;;;3.30;;
63276;SDS011;49403;51.046;13.780;2023-08-30T01:43:35;5.30;;;3.50;;
63276;SDS011;49403;51.046;13.780;2023-08-30T01:44:07;4.95;;;3.40;;
63276;SDS011;49403;51.046;13.780;2023-08-30T01:44:39;5.57;;;3.60;;
63276;SDS011;49403;51.046;13.780;2023-08-30T01:45:14;4.88;;;3.45;;
63276;SDS011;49403;51.046;13.780;2023-08-30T01:45:47;4.03;;;3.40;;
63276;SDS011;49403;51.046;13.780;2023-08-30T01:46:18;4.97;;;3.60;;
63276;SDS011;49403;51.046;13.780;2023-08-30T01:46:51;4.38;;;3.40;;
63276;SDS011;49403;51.046;13.780;2023-08-30T01:47:25;7.43;;;3.67;;
63276;SDS011;49403;51.046;13.780;2023-08-30T01:47:58;5.03;;;3.60;;
63276;SDS011;49403;51.046;13.780;2023-08-30T01:48:30;4.22;;;3.60;;
63276;SDS011;49403;51.046;13.780;2023-08-30T01:49:03;4.05;;;3.25;;
63276;SDS011;49403;51.046;13.780;2023-08-30T01:49:37;7.00;;;4.07;;
63276;SDS011;49403;51.046;13.780;2023-08-30T01:50:10;3.88;;;3.40;;
63276;SDS011;49403;51.046;13.780;2023-08-30T01:50:42;7.07;;;3.50;;
63276;SDS011;49403;51.046;13.780;2023-08-30T01:51:15;5.93;;;3.53;;
63276;SDS011;49403;51.046;13.780;2023-08-30T01:51:47;5.07;;;3.55;;
63276;SDS011;49403;51.046;13.780;2023-08-30T01:52:19;4.00;;;3.60;;
63276;SDS011;49403;51.046;13.780;2023-08-30T01:52:54;4.70;;;3.70;;
63276;SDS011;49403;51.046;13.780;2023-08-30T01:53:26;5.25;;;3.50;;
63276;SDS011;49403;51.046;13.780;2023-08-30T01:53:59;6.93;;;3.67;;
63276;SDS011;49403;51.046;13.780;2023-08-30T01:54:30;6.93;;;3.70;;
63276;SDS011;49403;51.046;13.780;2023-08-30T01:55:03;5.05;;;3.58;;
63276;SDS011;49403;51.046;13.780;2023-08-30T01:55:36;5.35;;;3.67;;
63276;SDS011;49403;51.046;13.780;2023-08-30T01:56:07;4.32;;;3.60;;
63276;SDS011;49403;51.046;13.780;2023-08-30T01:56:39;5.82;;;3.25;;
63276;SDS011;49403;51.046;13.780;2023-08-30T01:57:10;4.15;;;3.35;;
63276;SDS011;49403;51.046;13.780;2023-08-30T01:57:44;5.97;;;3.60;;
63276;SDS011;49403;51.046;13.780;2023-08-30T01:58:15;4.50;;;3.58;;
63276;SDS011;49403;51.046;13.780;2023-08-30T01:58:46;6.97;;;3.72;;
63276;SDS011;49403;51.046;13.780;2023-08-30T01:59:17;4.25;;;3.70;;
63276;SDS011;49403;51.046;13.780;2023-08-30T01:59:48;8.35;;;3.40;;
63276;SDS011;49403;51.046;13.780;2023-08-30T02:00:20;4.50;;;3.47;;
63276;SDS011;49403;51.046;13.780;2023-08-30T02:00:51;5.35;;;3.67;;
63276;SDS011;49403;51.046;13.780;2023-08-30T02:01:22;5.40;;;3.58;;
63276;SDS011;49403;51.046;13.780;2023-08-30T02:01:53;6.63;;;3.58;;
63276;SDS011;49403;51.046;13.780;2023-08-30T02:02:28;7.57;;;3.65;;
63276;SDS011;49403;51.046;13.780;2023-08-30T02:03:06;5.35;;;3.60;;
63276;SDS011;49403;51.046;13.780;2023-08-30T02:03:38;7.32;;;3.78;;
63276;SDS011;49403;51.046;13.780;2023-08-30T02:04:09;5.53;;;3.60;;
63276;SDS011;49403;51.046;13.780;2023-08-30T02:04:41;7.85;;;3.70;;
63276;SDS011;49403;51.046;13.780;2023-08-30T02:05:12;4.75;;;3.60;;
63276;SDS011;49403;51.046;13.780;2023-08-30T02:05:57;4.05;;;3.65;;
63276;SDS011;49403;51.046;13.780;2023-08-30T02:07:00;5.95;;;3.72;;
63276;SDS011;49403;51.046;13.780;2023-08-30T02:07:39;5.30;;;3.53;;
63276;SDS011;49403;51.046;13.780;2023-08-30T02:08:17;4.38;;;3.35;;
63276;SDS011;49403;51.046;13.780;2023-08-30T02:08:51;3.85;;;3.50;;
63276;SDS011;49403;51.046;13.780;2023-08-30T02:09:30;4.70;;;3.50;;
63276;SDS011;49403;51.046;13.780;2023-08-30T02:10:15;4.88;;;3.42;;
63276;SDS011;49403;51.046;13.780;2023-08-30T02:10:55;5.97;;;3.55;;
63276;SDS011;49403;51.046;13.780;2023-08-30T02:11:32;5.40;;;3.50;;
63276;SDS011;49403;51.046;13.780;2023-08-30T02:12:05;3.90;;;3.50;;
63276;SDS011;49403;51.046;13.780;2023-08-30T02:12:47;4.68;;;3.50;;
63276;SDS011;49403;51.046;13.780;2023-08-30T02:13:21;4.47;;;3.60;;
63276;SDS011;49403;51.046;13.780;2023-08-30T02:13:57;5.75;;;3.60;;
63276;SDS011;49403;51.046;13.780;2023-08-30T02:14:29;7.80;;;4.00;;
63276;SDS011;49403;51.046;13.780;2023-08-30T02:15:02;6.60;;;3.83;;
63276;SDS011;49403;51.046;13.780;2023-08-30T02:15:36;4.80;;;3.70;;
63276;SDS011;49403;51.046;13.780;2023-08-30T02:16:10;6.22;;;3.90;;
63276;SDS011;49403;51.046;13.780;2023-08-30T02:16:47;5.82;;;3.80;;
63276;SDS011;49403;51.046;13.780;2023-08-30T02:17:18;5.43;;;3.50;;
63276;SDS011;49403;51.046;13.780;2023-08-30T02:17:50;4.82;;;3.70;;
63276;SDS011;49403;51.046;13.780;2023-08-30T02:18:22;3.90;;;3.50;;
63276;SDS011;49403;51.046;13.780;2023-08-30T02:18:55;4.85;;;3.67;;
63276;SDS011;49403;51.046;13.780;2023-08-30T02:19:27;6.53;;;3.80;;
63276;SDS011;49403;51.046;13.780;2023-08-30T02:19:58;5.43;;;3.80;;
63276;SDS011;49403;51.046;13.780;2023-08-30T02:20:30;7.63;;;3.88;;
63276;SDS011;49403;51.046;13.780;2023-08-30T02:21:01;4.20;;;3.53;;
63276;SDS011;49403;51.046;13.780;2023-08-30T02:21:33;9.32;;;4.10;;
63276;SDS011;49403;51.046;13.780;2023-08-30T02:22:04;3.92;;;3.53;;
63276;SDS011;49403;51.046;13.780;2023-08-30T02:22:35;5.38;;;3.60;;
63276;SDS011;49403;51.046;13.780;2023-08-30T02:23:08;5.05;;;3.90;;
63276;SDS011;49403;51.046;13.780;2023-08-30T02:23:40;5.88;;;3.80;;
63276;SDS011;49403;51.046;13.780;2023-08-30T02:24:12;3.60;;;3.30;;
63276;SDS011;49403;51.046;13.780;2023-08-30T02:24:43;6.25;;;3.60;;
63276;SDS011;49403;51.046;13.780;2023-08-30T02:25:14;8.25;;;4.00;;
63276;SDS011;49403;51.046;13.780;2023-08-30T02:25:45;4.88;;;3.60;;
63276;SDS011;49403;51.046;13.780;2023-08-30T02:26:19;4.78;;;3.72;;
63276;SDS011;49403;51.046;13.780;2023-08-30T02:26:51;6.72;;;3.72;;
63276;SDS011;49403;51.046;13.780;2023-08-30T02:27:22;7.65;;;4.35;;
63276;SDS011;49403;51.046;13.780;2023-08-30T02:27:53;4.32;;;3.50;;
63276;SDS011;49403;51.046;13.780;2023-08-30T02:28:24;5.35;;;3.65;;
63276;SDS011;49403;51.046;13.780;2023-08-30T02:28:56;5.05;;;3.50;;
63276;SDS011;49403;51.046;13.780;2023-08-30T02:29:27;5.97;;;3.50;;
63276;SDS011;49403;51.046;13.780;2023-08-30T02:29:58;6.20;;;3.58;;
63276;SDS011;49403;51.046;13.780;2023-08-30T02:30:29;5.22;;;3.80;;
63276;SDS011;49403;51.046;13.780;2023-08-30T02:31:00;5.22;;;3.63;;
63276;SDS011;49403;51.046;13.780;2023-08-30T02:31:32;8.25;;;3.85;;
63276;SDS011;49403;51.046;13.780;2023-08-30T02:32:03;4.03;;;3.50;;
63276;SDS011;49403;51.046;13.780;2023-08-30T02:32:35;4.00;;;3.60;;
63276;SDS011;49403;51.046;13.780;2023-08-30T02:33:06;6.03;;;3.80;;
63276;SDS011;49403;51.046;13.780;2023-08-30T02:33:37;6.68;;;3.80;;
63276;SDS011;49403;51.046;13.780;2023-08-30T02:34:09;4.97;;;3.58;;
63276;SDS011;49403;51.046;13.780;2023-08-30T02:34:40;4.70;;;3.78;;
63276;SDS011;49403;51.046;13.780;2023-08-30T02:35:11;6.50;;;3.75;;
63276;SDS011;49403;51.046;13.780;2023-08-30T02:35:42;4.72;;;3.80;;
63276;SDS011;49403;51.046;13.780;2023-08-30T02:36:13;5.85;;;3.58;;
63276;SDS011;49403;51.046;13.780;2023-08-30T02:36:45;5.05;;;3.70;;
63276;SDS011;49403;51.046;13.780;2023-08-30T02:37:16;4.25;;;3.60;;
63276;SDS011;49403;51.046;13.780;2023-08-30T02:37:47;5.53;;;3.70;;
63276;SDS011;49403;51.046;13.780;2023-08-30T02:38:18;8.13;;;4.10;;
63276;SDS011;49403;51.046;13.780;2023-08-30T02:38:50;5.55;;;3.60;;
63276;SDS011;49403;51.046;13.780;2023-08-30T02:39:24;4.35;;;3.60;;
63276;SDS011;49403;51.046;13.780;2023-08-30T02:39:55;5.60;;;3.60;;
63276;SDS011;49403;51.046;13.780;2023-08-30T02:40:26;7.47;;;3.70;;
63276;SDS011;49403;51.046;13.780;2023-08-30T02:40:58;6.22;;;3.65;;
63276;SDS011;49403;51.046;13.780;2023-08-30T02:41:29;5.57;;;3.80;;
63276;SDS011;49403;51.046;13.780;2023-08-30T02:42:00;5.57;;;3.90;;
63276;SDS011;49403;51.046;13.780;2023-08-30T02:42:31;6.13;;;3.67;;
63276;SDS011;49403;51.046;13.780;2023-08-30T02:43:03;4.97;;;3.70;;
63276;SDS011;49403;51.046;13.780;2023-08-30T02:43:34;4.97;;;3.63;;
63276;SDS011;49403;51.046;13.780;2023-08-30T02:44:07;5.65;;;3.65;;
63276;SDS011;49403;51.046;13.780;2023-08-30T02:44:38;8.02;;;3.63;;
63276;SDS011;49403;51.046;13.780;2023-08-30T02:45:10;3.90;;;3.50;;
63276;SDS011;49403;51.046;13.780;2023-08-30T02:45:41;5.93;;;3.70;;
63276;SDS011;49403;51.046;13.780;2023-08-30T02:46:12;5.57;;;3.53;;
63276;SDS011;49403;51.046;13.780;2023-08-30T02:46:43;4.18;;;3.53;;
63276;SDS011;49403;51.046;13.780;2023-08-30T02:47:16;6.35;;;3.80;;
63276;SDS011;49403;51.046;13.780;2023-08-30T02:47:48;6.72;;;3.95;;
63276;SDS011;49403;51.046;13.780;2023-08-30T02:48:20;5.25;;;3.60;;
63276;SDS011;49403;51.046;13.780;2023-08-30T02:48:51;6.32;;;3.50;;
63276;SDS011;49403;51.046;13.780;2023-08-30T02:49:25;4.80;;;3.50;;
63276;SDS011;49403;51.046;13.780;2023-08-30T02:49:56;6.07;;;3.50;;
63276;SDS011;49403;51.046;13.780;2023-08-30T02:50:27;5.93;;;3.40;;
63276;SDS011;49403;51.046;13.780;2023-08-30T02:51:01;6.57;;;3.70;;
63276;SDS011;49403;51.046;13.780;2023-08-30T02:51:32;5.95;;;3.97;;
63276;SDS011;49403;51.046;13.780;2023-08-30T02:52:04;5.60;;;3.70;;
63276;SDS011;49403;51.046;13.780;2023-08-30T02:52:38;4.85;;;3.50;;
63276;SDS011;49403;51.046;13.780;2023-08-30T02:53:09;5.40;;;3.45;;
63276;SDS011;49403;51.046;13.780;2023-08-30T02:53:41;4.93;;;3.50;;
63276;SDS011;49403;51.046;13.780;2023-08-30T02:54:12;4.93;;;3.67;;
63276;SDS011;49403;51.046;13.780;2023-08-30T02:54:43;5.20;;;3.78;;
63276;SDS011;49403;51.046;13.780;2023-08-30T02:55:14;5.72;;;3.75;;
63276;SDS011;49403;51.046;13.780;2023-08-30T02:55:46;8.65;;;3.90;;
63276;SDS011;49403;51.046;13.780;2023-08-30T02:56:20;5.22;;;3.95;;
63276;SDS011;49403;51.046;13.780;2023-08-30T02:56:51;8.77;;;3.72;;
63276;SDS011;49403;51.046;13.780;2023-08-30T02:57:22;3.72;;;3.33;;
63276;SDS011;49403;51.046;13.780;2023-08-30T02:57:53;6.95;;;3.72;;
63276;SDS011;49403;51.046;13.780;2023-08-30T02:58:24;5.47;;;3.55;;
63276;SDS011;49403;51.046;13.780;2023-08-30T02:58:55;6.43;;;4.30;;
63276;SDS011;49403;51.046;13.780;2023-08-30T02:59:27;4.05;;;3.60;;
63276;SDS011;49403;51.046;13.780;2023-08-30T02:59:58;4.63;;;3.80;;
63276;SDS011;49403;51.046;13.780;2023-08-30T03:00:29;5.90;;;3.50;;
63276;SDS011;49403;51.046;13.780;2023-08-30T03:01:01;3.85;;;3.45;;
63276;SDS011;49403;51.046;13.780;2023-08-30T03:01:32;6.47;;;3.90;;
63276;SDS011;49403;51.046;13.780;2023-08-30T03:02:03;8.65;;;3.72;;
63276;SDS011;49403;51.046;13.780;2023-08-30T03:02:35;3.83;;;3.42;;
63276;SDS011;49403;51.046;13.780;2023-08-30T03:03:06;6.03;;;3.80;;
63276;SDS011;49403;51.046;13.780;2023-08-30T03:03:37;6.22;;;3.65;;
63276;SDS011;49403;51.046;13.780;2023-08-30T03:04:08;5.60;;;3.80;;
63276;SDS011;49403;51.046;13.780;2023-08-30T03:04:40;4.50;;;3.90;;
63276;SDS011;49403;51.046;13.780;2023-08-30T03:05:11;7.18;;;3.90;;
63276;SDS011;49403;51.046;13.780;2023-08-30T03:05:42;6.00;;;3.95;;
63276;SDS011;49403;51.046;13.780;2023-08-30T03:06:13;5.30;;;3.72;;
63276;SDS011;49403;51.046;13.780;2023-08-30T03:06:44;8.38;;;3.80;;
63276;SDS011;49403;51.046;13.780;2023-08-30T03:07:16;6.65;;;3.92;;
63276;SDS011;49403;51.046;13.780;2023-08-30T03:07:47;6.00;;;3.80;;
63276;SDS011;49403;51.046;13.780;2023-08-30T03:08:18;4.53;;;3.80;;
63276;SDS011;49403;51.046;13.780;2023-08-30T03:08:49;5.63;;;3.80;;
63276;SDS011;49403;51.046;13.780;2023-08-30T03:09:20;4.88;;;3.83;;
63276;SDS011;49403;51.046;13.780;2023-08-30T03:09:54;6.72;;;3.78;;
63276;SDS011;49403;51.046;13.780;2023-08-30T03:10:25;5.25;;;3.75;;
63276;SDS011;49403;51.046;13.780;2023-08-30T03:11:06;7.22;;;3.90;;
63276;SDS011;49403;51.046;13.780;2023-08-30T03:11:40;7.80;;;3.80;;
63276;SDS011;49403;51.046;13.780;2023-08-30T03:12:12;3.97;;;3.50;;
63276;SDS011;49403;51.046;13.780;2023-08-30T03:12:44;8.00;;;4.10;;
63276;SDS011;49403;51.046;13.780;2023-08-30T03:13:15;5.30;;;3.60;;
63276;SDS011;49403;51.046;13.780;2023-08-30T03:13:46;6.20;;;3.65;;
63276;SDS011;49403;51.046;13.780;2023-08-30T03:14:17;4.70;;;3.97;;
63276;SDS011;49403;51.046;13.780;2023-08-30T03:14:49;5.15;;;3.70;;
63276;SDS011;49403;51.046;13.780;2023-08-30T03:15:20;6.35;;;3.92;;
63276;SDS011;49403;51.046;13.780;2023-08-30T03:15:51;5.50;;;3.70;;
63276;SDS011;49403;51.046;13.780;2023-08-30T03:16:22;5.88;;;3.97;;
63276;SDS011;49403;51.046;13.780;2023-08-30T03:16:53;6.20;;;3.75;;
63276;SDS011;49403;51.046;13.780;2023-08-30T03:17:24;5.53;;;3.75;;
63276;SDS011;49403;51.046;13.780;2023-08-30T03:17:56;5.93;;;4.20;;
63276;SDS011;49403;51.046;13.780;2023-08-30T03:18:29;5.50;;;3.88;;